createdAt,value
2022-09-06T00:09:27.796Z,1011.60
2022-09-06T00:24:27.818Z,1012.00
2022-09-06T00:39:27.892Z,1011.99
2022-09-06T00:54:27.947Z,1012.41
2022-09-06T01:09:27.971Z,1012.45
2022-09-06T01:24:27.909Z,1012.83
2022-09-06T01:39:28.095Z,1012.82
2022-09-06T01:54:28.008Z,1012.73
2022-09-06T02:09:28.617Z,1012.68
2022-09-06T02:24:28.280Z,1012.55
2022-09-06T02:39:28.244Z,1012.18
2022-09-06T02:54:28.166Z,1012.27
2022-09-06T03:09:28.173Z,1012.05
2022-09-06T03:24:28.288Z,1011.67
2022-09-06T03:39:28.338Z,1011.82
2022-09-06T03:54:28.312Z,1011.97
2022-09-06T04:09:28.317Z,1011.78
2022-09-06T04:24:28.446Z,1011.55
2022-09-06T04:39:28.485Z,1011.85
2022-09-06T04:54:28.525Z,1012.15
2022-09-06T05:09:28.834Z,1012.07
2022-09-06T05:24:28.509Z,1012.05
2022-09-06T05:39:28.740Z,1012.24
2022-09-06T05:54:28.699Z,1012.21
2022-09-06T06:09:28.613Z,1012.30
2022-09-06T06:24:28.753Z,1012.17
2022-09-06T06:39:28.924Z,1012.15
2022-09-06T06:54:28.877Z,1011.99
2022-09-06T07:24:28.828Z,1011.97
2022-09-06T07:39:28.889Z,1011.97
2022-09-06T07:54:30.830Z,1011.83
2022-09-06T08:09:29.277Z,1011.91
2022-09-06T08:24:29.379Z,1012.01
2022-09-06T08:39:29.304Z,1011.92
2022-09-06T08:54:29.299Z,1011.85
2022-09-06T09:09:29.371Z,1011.79
2022-09-06T09:24:29.409Z,1011.74
2022-09-06T09:39:29.541Z,1011.46
2022-09-06T09:54:29.517Z,1011.35
2022-09-06T10:09:29.647Z,1011.21
2022-09-06T10:24:29.572Z,1011.24
2022-09-06T10:39:29.623Z,1011.29
2022-09-06T10:54:29.683Z,1011.13
2022-09-06T11:09:29.620Z,1011.13
2022-09-06T11:24:29.699Z,1010.99
2022-09-06T11:54:29.732Z,1011.08
2022-09-06T12:09:29.845Z,1010.91
2022-09-06T12:24:29.965Z,1010.85
2022-09-06T12:39:29.940Z,1010.82
2022-09-06T12:54:29.956Z,1010.67
2022-09-06T13:09:30.049Z,1010.52
2022-09-06T13:24:30.035Z,1010.46
2022-09-06T13:39:29.925Z,1010.30
2022-09-06T13:54:30.240Z,1010.15
2022-09-06T14:09:30.153Z,1010.01
2022-09-06T14:24:30.071Z,1009.97
2022-09-06T14:39:30.267Z,1009.94
2022-09-06T14:54:30.247Z,1009.87
2022-09-06T15:09:30.377Z,1009.59
2022-09-06T15:24:30.371Z,1009.50
2022-09-06T15:39:30.463Z,1009.26
2022-09-06T15:54:30.438Z,1009.14
2022-09-06T16:09:30.516Z,1009.12
2022-09-06T16:24:30.594Z,1009.03
2022-09-06T16:39:30.678Z,1008.94
2022-09-06T16:54:30.563Z,1009.06
2022-09-06T17:09:30.656Z,1009.02
2022-09-06T17:24:30.804Z,1009.07
2022-09-06T17:39:30.875Z,1009.03
2022-09-06T17:54:30.816Z,1009.01
2022-09-06T18:09:30.864Z,1009.00
2022-09-06T18:24:30.818Z,1008.87
2022-09-06T18:39:31.032Z,1008.88
2022-09-06T18:54:31.096Z,1008.93
2022-09-06T19:09:31.158Z,1008.89
2022-09-06T19:24:31.035Z,1008.81
2022-09-06T19:39:36.294Z,1008.49
2022-09-06T19:54:31.046Z,1008.39
2022-09-06T20:09:31.121Z,1008.34
2022-09-06T20:24:31.155Z,1008.12
2022-09-06T20:39:31.233Z,1008.28
2022-09-06T20:54:31.292Z,1008.34
2022-09-06T21:09:31.411Z,1008.20
2022-09-06T21:24:31.422Z,1008.54
2022-09-06T21:39:31.508Z,1008.52
2022-09-06T21:54:31.546Z,1008.40
2022-09-06T22:09:31.444Z,1008.21
2022-09-06T22:24:31.385Z,1007.62
2022-09-06T22:39:31.627Z,1007.28
2022-09-06T22:54:31.583Z,1007.25
2022-09-06T23:09:31.663Z,1007.37
2022-09-06T23:24:31.682Z,1007.29
2022-09-06T23:39:31.645Z,1009.37
2022-09-06T23:54:31.805Z,1010.07
